sensor_id;sensor_type;location;lat;lon;timestamp;temperature;humidity
20208;DHT22;10263;48.716;8.760;2022-07-29T00:01:16;18.60;99.90
20208;DHT22;10263;48.716;8.760;2022-07-29T00:03:43;18.60;99.90
20208;DHT22;10263;48.716;8.760;2022-07-29T00:06:10;18.60;99.90
20208;DHT22;10263;48.716;8.760;2022-07-29T00:08:36;18.60;99.90
20208;DHT22;10263;48.716;8.760;2022-07-29T00:11:03;18.60;99.90
20208;DHT22;10263;48.716;8.760;2022-07-29T00:13:30;18.60;99.90
20208;DHT22;10263;48.716;8.760;2022-07-29T00:15:57;17.40;99.90
20208;DHT22;10263;48.716;8.760;2022-07-29T00:18:25;18.60;99.90
20208;DHT22;10263;48.716;8.760;2022-07-29T00:20:52;18.50;99.90
20208;DHT22;10263;48.716;8.760;2022-07-29T00:23:19;18.50;99.90
20208;DHT22;10263;48.716;8.760;2022-07-29T00:25:46;18.50;99.90
20208;DHT22;10263;48.716;8.760;2022-07-29T00:28:13;18.50;99.90
20208;DHT22;10263;48.716;8.760;2022-07-29T00:30:39;18.50;99.90
20208;DHT22;10263;48.716;8.760;2022-07-29T00:33:08;18.40;99.90
20208;DHT22;10263;48.716;8.760;2022-07-29T00:35:36;18.40;99.90
20208;DHT22;10263;48.716;8.760;2022-07-29T00:38:12;18.40;99.90
20208;DHT22;10263;48.716;8.760;2022-07-29T00:40:40;18.40;99.90
20208;DHT22;10263;48.716;8.760;2022-07-29T00:43:07;18.30;99.90
20208;DHT22;10263;48.716;8.760;2022-07-29T00:45:34;18.30;99.90
20208;DHT22;10263;48.716;8.760;2022-07-29T00:48:01;18.30;99.90
20208;DHT22;10263;48.716;8.760;2022-07-29T00:50:30;18.30;99.90
20208;DHT22;10263;48.716;8.760;2022-07-29T00:52:58;18.30;99.90
20208;DHT22;10263;48.716;8.760;2022-07-29T00:55:26;18.30;99.90
20208;DHT22;10263;48.716;8.760;2022-07-29T00:57:53;18.20;99.90
20208;DHT22;10263;48.716;8.760;2022-07-29T01:00:21;18.20;99.90
20208;DHT22;10263;48.716;8.760;2022-07-29T01:02:49;18.20;99.90
20208;DHT22;10263;48.716;8.760;2022-07-29T01:05:18;18.20;99.90
20208;DHT22;10263;48.716;8.760;2022-07-29T01:07:46;18.10;99.90
20208;DHT22;10263;48.716;8.760;2022-07-29T01:10:16;18.20;99.90
20208;DHT22;10263;48.716;8.760;2022-07-29T01:12:47;18.20;99.90
20208;DHT22;10263;48.716;8.760;2022-07-29T01:15:14;18.20;99.90
20208;DHT22;10263;48.716;8.760;2022-07-29T01:17:43;18.10;99.90
20208;DHT22;10263;48.716;8.760;2022-07-29T01:20:16;18.10;99.90
20208;DHT22;10263;48.716;8.760;2022-07-29T01:23:01;18.10;99.90
20208;DHT22;10263;48.716;8.760;2022-07-29T01:28:49;18.00;99.90
20208;DHT22;10263;48.716;8.760;2022-07-29T01:31:22;18.00;99.90
20208;DHT22;10263;48.716;8.760;2022-07-29T01:33:55;18.00;99.90
20208;DHT22;10263;48.716;8.760;2022-07-29T01:36:29;18.00;99.90
20208;DHT22;10263;48.716;8.760;2022-07-29T01:39:01;18.00;99.90
20208;DHT22;10263;48.716;8.760;2022-07-29T01:41:32;18.00;99.90
20208;DHT22;10263;48.716;8.760;2022-07-29T01:44:10;18.00;99.90
20208;DHT22;10263;48.716;8.760;2022-07-29T01:46:41;18.00;99.90
20208;DHT22;10263;48.716;8.760;2022-07-29T01:49:12;17.90;99.90
20208;DHT22;10263;48.716;8.760;2022-07-29T01:51:43;18.00;99.90
20208;DHT22;10263;48.716;8.760;2022-07-29T01:54:16;17.90;99.90
20208;DHT22;10263;48.716;8.760;2022-07-29T01:56:48;18.00;99.90
20208;DHT22;10263;48.716;8.760;2022-07-29T01:59:18;17.90;99.90
20208;DHT22;10263;48.716;8.760;2022-07-29T02:01:47;17.90;99.90
20208;DHT22;10263;48.716;8.760;2022-07-29T02:04:16;17.90;99.90
20208;DHT22;10263;48.716;8.760;2022-07-29T02:06:45;17.90;99.90
20208;DHT22;10263;48.716;8.760;2022-07-29T02:09:14;17.90;99.90
20208;DHT22;10263;48.716;8.760;2022-07-29T02:11:48;17.90;99.90
20208;DHT22;10263;48.716;8.760;2022-07-29T02:14:20;17.90;99.90
20208;DHT22;10263;48.716;8.760;2022-07-29T02:16:50;17.80;99.90
20208;DHT22;10263;48.716;8.760;2022-07-29T02:19:20;17.90;99.90
20208;DHT22;10263;48.716;8.760;2022-07-29T02:21:48;17.80;99.90
20208;DHT22;10263;48.716;8.760;2022-07-29T02:24:16;17.80;99.90
20208;DHT22;10263;48.716;8.760;2022-07-29T02:26:44;17.80;99.90
20208;DHT22;10263;48.716;8.760;2022-07-29T02:29:12;17.80;99.90
20208;DHT22;10263;48.716;8.760;2022-07-29T02:31:43;17.70;99.90
20208;DHT22;10263;48.716;8.760;2022-07-29T02:34:13;17.70;99.90
20208;DHT22;10263;48.716;8.760;2022-07-29T02:36:42;17.70;99.90
20208;DHT22;10263;48.716;8.760;2022-07-29T02:39:11;17.70;99.90
20208;DHT22;10263;48.716;8.760;2022-07-29T02:41:41;17.70;99.90
20208;DHT22;10263;48.716;8.760;2022-07-29T02:44:10;17.70;99.90
20208;DHT22;10263;48.716;8.760;2022-07-29T02:46:45;17.70;99.90
20208;DHT22;10263;48.716;8.760;2022-07-29T02:49:15;17.60;99.90
20208;DHT22;10263;48.716;8.760;2022-07-29T02:51:45;17.60;99.90
20208;DHT22;10263;48.716;8.760;2022-07-29T02:54:20;17.60;99.90
20208;DHT22;10263;48.716;8.760;2022-07-29T02:56:49;17.60;99.90
20208;DHT22;10263;48.716;8.760;2022-07-29T02:59:23;17.60;99.90
20208;DHT22;10263;48.716;8.760;2022-07-29T03:01:54;17.60;99.90
20208;DHT22;10263;48.716;8.760;2022-07-29T03:04:24;17.60;99.90
20208;DHT22;10263;48.716;8.760;2022-07-29T03:06:52;17.60;99.90
20208;DHT22;10263;48.716;8.760;2022-07-29T03:09:19;17.50;99.90
20208;DHT22;10263;48.716;8.760;2022-07-29T03:11:47;17.60;99.90
20208;DHT22;10263;48.716;8.760;2022-07-29T03:14:16;17.60;99.90
20208;DHT22;10263;48.716;8.760;2022-07-29T03:16:43;17.60;99.90
20208;DHT22;10263;48.716;8.760;2022-07-29T03:19:11;17.50;99.90
20208;DHT22;10263;48.716;8.760;2022-07-29T03:21:38;17.50;99.90
20208;DHT22;10263;48.716;8.760;2022-07-29T03:24:06;17.40;99.90
20208;DHT22;10263;48.716;8.760;2022-07-29T03:26:32;17.50;99.90
20208;DHT22;10263;48.716;8.760;2022-07-29T03:28:59;17.40;99.90
20208;DHT22;10263;48.716;8.760;2022-07-29T03:31:26;17.50;99.90
20208;DHT22;10263;48.716;8.760;2022-07-29T03:33:53;17.40;99.90
20208;DHT22;10263;48.716;8.760;2022-07-29T03:36:21;17.40;99.90
20208;DHT22;10263;48.716;8.760;2022-07-29T03:38:48;17.40;99.90
20208;DHT22;10263;48.716;8.760;2022-07-29T03:41:16;17.40;99.90
20208;DHT22;10263;48.716;8.760;2022-07-29T03:43:46;17.30;99.90
20208;DHT22;10263;48.716;8.760;2022-07-29T03:46:14;17.30;99.90
20208;DHT22;10263;48.716;8.760;2022-07-29T03:48:45;17.30;99.90
20208;DHT22;10263;48.716;8.760;2022-07-29T03:51:13;17.30;99.90
20208;DHT22;10263;48.716;8.760;2022-07-29T03:53:41;17.30;99.90
20208;DHT22;10263;48.716;8.760;2022-07-29T03:56:10;17.20;99.90
20208;DHT22;10263;48.716;8.760;2022-07-29T03:58:38;17.20;99.90
20208;DHT22;10263;48.716;8.760;2022-07-29T04:01:05;17.20;99.90
20208;DHT22;10263;48.716;8.760;2022-07-29T04:03:33;17.20;99.90
20208;DHT22;10263;48.716;8.760;2022-07-29T04:06:01;17.20;99.90
20208;DHT22;10263;48.716;8.760;2022-07-29T04:08:28;17.20;99.90
20208;DHT22;10263;48.716;8.760;2022-07-29T04:10:57;17.10;99.90
20208;DHT22;10263;48.716;8.760;2022-07-29T04:13:23;17.10;99.90
20208;DHT22;10263;48.716;8.760;2022-07-29T04:15:50;17.10;99.90
20208;DHT22;10263;48.716;8.760;2022-07-29T04:18:17;19.00;99.90
20208;DHT22;10263;48.716;8.760;2022-07-29T04:20:44;17.10;99.90
20208;DHT22;10263;48.716;8.760;2022-07-29T04:23:11;17.10;99.90
20208;DHT22;10263;48.716;8.760;2022-07-29T04:25:38;17.10;99.90
20208;DHT22;10263;48.716;8.760;2022-07-29T04:28:07;17.10;99.90
20208;DHT22;10263;48.716;8.760;2022-07-29T04:30:35;17.10;99.90
20208;DHT22;10263;48.716;8.760;2022-07-29T04:33:04;17.10;99.90
20208;DHT22;10263;48.716;8.760;2022-07-29T04:35:34;17.00;99.90
20208;DHT22;10263;48.716;8.760;2022-07-29T04:38:01;17.10;99.90
20208;DHT22;10263;48.716;8.760;2022-07-29T04:40:28;17.10;99.90
20208;DHT22;10263;48.716;8.760;2022-07-29T04:42:55;17.10;99.90
20208;DHT22;10263;48.716;8.760;2022-07-29T04:45:23;17.20;99.90
20208;DHT22;10263;48.716;8.760;2022-07-29T04:47:50;17.10;99.90
20208;DHT22;10263;48.716;8.760;2022-07-29T04:50:17;17.20;99.90
20208;DHT22;10263;48.716;8.760;2022-07-29T04:52:44;17.20;99.90
20208;DHT22;10263;48.716;8.760;2022-07-29T04:55:10;17.20;99.90
20208;DHT22;10263;48.716;8.760;2022-07-29T04:57:37;17.20;99.90
20208;DHT22;10263;48.716;8.760;2022-07-29T05:00:05;17.30;99.90
20208;DHT22;10263;48.716;8.760;2022-07-29T05:02:34;17.30;99.90
20208;DHT22;10263;48.716;8.760;2022-07-29T05:05:00;17.30;99.90
20208;DHT22;10263;48.716;8.760;2022-07-29T05:07:27;17.30;99.90
20208;DHT22;10263;48.716;8.760;2022-07-29T05:09:54;17.30;99.90
20208;DHT22;10263;48.716;8.760;2022-07-29T05:12:22;17.40;99.90
20208;DHT22;10263;48.716;8.760;2022-07-29T05:14:49;17.40;99.90
20208;DHT22;10263;48.716;8.760;2022-07-29T05:17:16;17.50;99.90
20208;DHT22;10263;48.716;8.760;2022-07-29T05:19:44;17.50;99.90
20208;DHT22;10263;48.716;8.760;2022-07-29T05:22:11;18.30;99.90
20208;DHT22;10263;48.716;8.760;2022-07-29T05:24:38;15.60;99.90
20208;DHT22;10263;48.716;8.760;2022-07-29T05:27:04;17.60;99.90
20208;DHT22;10263;48.716;8.760;2022-07-29T05:29:31;17.60;99.90
20208;DHT22;10263;48.716;8.760;2022-07-29T05:31:58;17.60;99.90
20208;DHT22;10263;48.716;8.760;2022-07-29T05:34:24;17.60;99.90
20208;DHT22;10263;48.716;8.760;2022-07-29T05:36:53;17.60;99.90
20208;DHT22;10263;48.716;8.760;2022-07-29T05:39:19;17.60;99.90
20208;DHT22;10263;48.716;8.760;2022-07-29T05:41:46;17.70;99.90
20208;DHT22;10263;48.716;8.760;2022-07-29T05:44:13;17.70;99.90
20208;DHT22;10263;48.716;8.760;2022-07-29T05:46:40;17.80;99.90
20208;DHT22;10263;48.716;8.760;2022-07-29T05:49:07;17.90;99.90
20208;DHT22;10263;48.716;8.760;2022-07-29T05:51:34;17.90;99.90
20208;DHT22;10263;48.716;8.760;2022-07-29T05:54:02;18.00;99.90
20208;DHT22;10263;48.716;8.760;2022-07-29T05:56:29;18.00;99.90
20208;DHT22;10263;48.716;8.760;2022-07-29T05:58:55;18.10;99.90
20208;DHT22;10263;48.716;8.760;2022-07-29T06:01:22;18.20;99.90
20208;DHT22;10263;48.716;8.760;2022-07-29T06:03:49;18.30;99.90
20208;DHT22;10263;48.716;8.760;2022-07-29T06:06:16;18.30;99.90
20208;DHT22;10263;48.716;8.760;2022-07-29T06:08:43;18.40;99.90
20208;DHT22;10263;48.716;8.760;2022-07-29T06:11:11;18.40;99.90
20208;DHT22;10263;48.716;8.760;2022-07-29T06:13:37;18.50;99.90
20208;DHT22;10263;48.716;8.760;2022-07-29T06:16:04;18.50;99.90
20208;DHT22;10263;48.716;8.760;2022-07-29T06:18:31;18.60;99.90
20208;DHT22;10263;48.716;8.760;2022-07-29T06:20:58;18.60;99.90
20208;DHT22;10263;48.716;8.760;2022-07-29T06:23:25;18.60;99.90
20208;DHT22;10263;48.716;8.760;2022-07-29T06:25:51;18.60;99.90
20208;DHT22;10263;48.716;8.760;2022-07-29T06:28:20;18.60;99.90
20208;DHT22;10263;48.716;8.760;2022-07-29T06:30:46;18.70;99.90
20208;DHT22;10263;48.716;8.760;2022-07-29T06:33:16;18.80;99.90
20208;DHT22;10263;48.716;8.760;2022-07-29T06:35:44;18.90;99.90
20208;DHT22;10263;48.716;8.760;2022-07-29T06:38:12;19.20;99.90
20208;DHT22;10263;48.716;8.760;2022-07-29T06:40:41;19.60;99.90
20208;DHT22;10263;48.716;8.760;2022-07-29T06:43:28;19.90;99.90
20208;DHT22;10263;48.716;8.760;2022-07-29T06:45:58;20.10;99.90
20208;DHT22;10263;48.716;8.760;2022-07-29T06:48:26;20.50;99.90
20208;DHT22;10263;48.716;8.760;2022-07-29T06:50:53;20.70;99.90
20208;DHT22;10263;48.716;8.760;2022-07-29T06:53:20;20.80;99.90
20208;DHT22;10263;48.716;8.760;2022-07-29T06:55:47;21.30;99.90
20208;DHT22;10263;48.716;8.760;2022-07-29T06:58:14;21.40;99.90
20208;DHT22;10263;48.716;8.760;2022-07-29T07:00:55;21.50;99.90
20208;DHT22;10263;48.716;8.760;2022-07-29T07:03:23;22.00;99.90
20208;DHT22;10263;48.716;8.760;2022-07-29T07:05:51;22.40;99.90
20208;DHT22;10263;48.716;8.760;2022-07-29T07:08:18;22.30;99.90
20208;DHT22;10263;48.716;8.760;2022-07-29T07:10:45;22.10;99.90
20208;DHT22;10263;48.716;8.760;2022-07-29T07:13:12;21.60;99.90
20208;DHT22;10263;48.716;8.760;2022-07-29T07:15:40;22.20;99.90
20208;DHT22;10263;48.716;8.760;2022-07-29T07:18:08;22.60;99.90
20208;DHT22;10263;48.716;8.760;2022-07-29T07:20:35;23.20;99.90
20208;DHT22;10263;48.716;8.760;2022-07-29T07:23:03;23.80;99.90
20208;DHT22;10263;48.716;8.760;2022-07-29T07:25:30;24.30;99.90
20208;DHT22;10263;48.716;8.760;2022-07-29T07:27:57;24.50;99.90
20208;DHT22;10263;48.716;8.760;2022-07-29T07:30:24;24.50;99.90
20208;DHT22;10263;48.716;8.760;2022-07-29T07:32:51;24.70;99.90
20208;DHT22;10263;48.716;8.760;2022-07-29T07:35:19;24.80;99.90
20208;DHT22;10263;48.716;8.760;2022-07-29T07:37:46;25.00;99.90
20208;DHT22;10263;48.716;8.760;2022-07-29T07:40:13;24.80;99.90
20208;DHT22;10263;48.716;8.760;2022-07-29T07:42:40;24.60;99.90
20208;DHT22;10263;48.716;8.760;2022-07-29T07:45:08;24.40;99.90
20208;DHT22;10263;48.716;8.760;2022-07-29T07:47:35;24.20;99.90
20208;DHT22;10263;48.716;8.760;2022-07-29T07:50:03;24.00;99.90
20208;DHT22;10263;48.716;8.760;2022-07-29T07:52:32;24.20;99.90
20208;DHT22;10263;48.716;8.760;2022-07-29T07:54:59;24.60;99.90
20208;DHT22;10263;48.716;8.760;2022-07-29T07:57:26;25.20;99.90
20208;DHT22;10263;48.716;8.760;2022-07-29T07:59:53;25.80;99.90
20208;DHT22;10263;48.716;8.760;2022-07-29T08:02:20;26.30;99.90
20208;DHT22;10263;48.716;8.760;2022-07-29T08:04:46;26.60;99.90
20208;DHT22;10263;48.716;8.760;2022-07-29T08:07:13;26.90;99.90
20208;DHT22;10263;48.716;8.760;2022-07-29T08:09:41;26.70;99.90
20208;DHT22;10263;48.716;8.760;2022-07-29T08:12:08;26.50;99.90
20208;DHT22;10263;48.716;8.760;2022-07-29T08:14:35;27.90;99.90
20208;DHT22;10263;48.716;8.760;2022-07-29T08:17:02;26.30;99.90
20208;DHT22;10263;48.716;8.760;2022-07-29T08:19:29;26.30;99.90
20208;DHT22;10263;48.716;8.760;2022-07-29T08:21:55;26.30;99.90
20208;DHT22;10263;48.716;8.760;2022-07-29T08:24:22;26.40;99.90
20208;DHT22;10263;48.716;8.760;2022-07-29T08:27:08;26.50;99.90
20208;DHT22;10263;48.716;8.760;2022-07-29T08:29:35;26.50;99.90
20208;DHT22;10263;48.716;8.760;2022-07-29T08:32:02;26.50;99.90
20208;DHT22;10263;48.716;8.760;2022-07-29T08:34:29;26.50;99.90
20208;DHT22;10263;48.716;8.760;2022-07-29T08:36:56;26.60;99.90
20208;DHT22;10263;48.716;8.760;2022-07-29T08:39:23;26.60;99.70
20208;DHT22;10263;48.716;8.760;2022-07-29T08:41:50;26.60;99.90
20208;DHT22;10263;48.716;8.760;2022-07-29T08:44:19;26.70;99.90
20208;DHT22;10263;48.716;8.760;2022-07-29T08:46:47;26.80;99.90
20208;DHT22;10263;48.716;8.760;2022-07-29T08:49:15;26.80;99.90
20208;DHT22;10263;48.716;8.760;2022-07-29T08:51:41;26.70;98.30
20208;DHT22;10263;48.716;8.760;2022-07-29T08:54:09;26.80;98.90
20208;DHT22;10263;48.716;8.760;2022-07-29T08:56:37;26.70;97.20
20208;DHT22;10263;48.716;8.760;2022-07-29T08:59:05;26.70;96.10
20208;DHT22;10263;48.716;8.760;2022-07-29T09:01:37;26.70;97.80
20208;DHT22;10263;48.716;8.760;2022-07-29T09:04:10;26.90;98.10
20208;DHT22;10263;48.716;8.760;2022-07-29T09:06:42;27.00;97.50
20208;DHT22;10263;48.716;8.760;2022-07-29T09:09:09;27.20;96.20
20208;DHT22;10263;48.716;8.760;2022-07-29T09:11:36;27.30;96.20
20208;DHT22;10263;48.716;8.760;2022-07-29T09:14:03;27.50;95.70
20208;DHT22;10263;48.716;8.760;2022-07-29T09:16:46;27.60;94.60
20208;DHT22;10263;48.716;8.760;2022-07-29T09:19:20;27.60;93.10
20208;DHT22;10263;48.716;8.760;2022-07-29T09:21:47;27.70;94.10
20208;DHT22;10263;48.716;8.760;2022-07-29T09:24:41;27.70;92.50
20208;DHT22;10263;48.716;8.760;2022-07-29T09:27:22;27.50;92.20
20208;DHT22;10263;48.716;8.760;2022-07-29T09:29:58;27.30;93.40
20208;DHT22;10263;48.716;8.760;2022-07-29T09:32:27;27.00;94.70
20208;DHT22;10263;48.716;8.760;2022-07-29T09:35:14;26.70;93.20
20208;DHT22;10263;48.716;8.760;2022-07-29T09:37:41;26.50;93.60
20208;DHT22;10263;48.716;8.760;2022-07-29T09:40:12;26.30;94.60
20208;DHT22;10263;48.716;8.760;2022-07-29T09:42:39;26.10;96.10
20208;DHT22;10263;48.716;8.760;2022-07-29T09:45:07;25.80;94.50
20208;DHT22;10263;48.716;8.760;2022-07-29T09:47:43;25.10;93.80
20208;DHT22;10263;48.716;8.760;2022-07-29T09:50:12;25.70;94.30
20208;DHT22;10263;48.716;8.760;2022-07-29T09:52:47;25.50;95.10
20208;DHT22;10263;48.716;8.760;2022-07-29T09:55:15;25.30;94.90
20208;DHT22;10263;48.716;8.760;2022-07-29T09:57:42;25.30;95.30
20208;DHT22;10263;48.716;8.760;2022-07-29T10:00:11;25.20;95.80
20208;DHT22;10263;48.716;8.760;2022-07-29T10:02:40;25.80;94.60
20208;DHT22;10263;48.716;8.760;2022-07-29T10:05:19;24.80;96.80
20208;DHT22;10263;48.716;8.760;2022-07-29T10:07:47;24.70;97.40
20208;DHT22;10263;48.716;8.760;2022-07-29T10:10:21;24.40;98.00
20208;DHT22;10263;48.716;8.760;2022-07-29T10:12:52;23.90;98.30
20208;DHT22;10263;48.716;8.760;2022-07-29T10:15:20;23.60;97.80
20208;DHT22;10263;48.716;8.760;2022-07-29T10:17:47;23.40;97.00
20208;DHT22;10263;48.716;8.760;2022-07-29T10:20:16;23.20;96.80
20208;DHT22;10263;48.716;8.760;2022-07-29T10:22:43;23.10;96.80
20208;DHT22;10263;48.716;8.760;2022-07-29T10:25:12;22.90;97.50
20208;DHT22;10263;48.716;8.760;2022-07-29T10:27:40;21.60;98.00
20208;DHT22;10263;48.716;8.760;2022-07-29T10:30:09;22.70;99.90
20208;DHT22;10263;48.716;8.760;2022-07-29T10:32:50;22.50;99.90
20208;DHT22;10263;48.716;8.760;2022-07-29T10:35:44;22.30;99.90
20208;DHT22;10263;48.716;8.760;2022-07-29T10:38:37;22.40;99.90
20208;DHT22;10263;48.716;8.760;2022-07-29T10:41:17;22.40;99.90
20208;DHT22;10263;48.716;8.760;2022-07-29T10:43:56;22.30;99.90
20208;DHT22;10263;48.716;8.760;2022-07-29T10:46:24;22.20;99.90
20208;DHT22;10263;48.716;8.760;2022-07-29T10:49:08;22.10;99.90
20208;DHT22;10263;48.716;8.760;2022-07-29T10:52:00;22.10;99.90
20208;DHT22;10263;48.716;8.760;2022-07-29T10:54:39;22.20;99.90
20208;DHT22;10263;48.716;8.760;2022-07-29T10:57:28;22.20;99.90
20208;DHT22;10263;48.716;8.760;2022-07-29T11:00:26;22.30;99.90
20208;DHT22;10263;48.716;8.760;2022-07-29T11:02:53;22.30;99.90
20208;DHT22;10263;48.716;8.760;2022-07-29T11:05:22;22.20;99.90
20208;DHT22;10263;48.716;8.760;2022-07-29T11:08:23;22.10;99.90
20208;DHT22;10263;48.716;8.760;2022-07-29T11:10:53;22.10;99.90
20208;DHT22;10263;48.716;8.760;2022-07-29T11:13:47;22.00;99.90
20208;DHT22;10263;48.716;8.760;2022-07-29T11:16:16;22.10;99.90
20208;DHT22;10263;48.716;8.760;2022-07-29T11:19:21;22.10;99.90
20208;DHT22;10263;48.716;8.760;2022-07-29T11:21:48;22.10;99.90
20208;DHT22;10263;48.716;8.760;2022-07-29T11:24:19;22.20;99.90
20208;DHT22;10263;48.716;8.760;2022-07-29T11:27:07;22.30;99.90
20208;DHT22;10263;48.716;8.760;2022-07-29T11:29:35;22.30;99.90
20208;DHT22;10263;48.716;8.760;2022-07-29T11:32:11;22.30;99.90
20208;DHT22;10263;48.716;8.760;2022-07-29T11:34:39;22.30;99.90
20208;DHT22;10263;48.716;8.760;2022-07-29T11:37:24;22.50;99.90
20208;DHT22;10263;48.716;8.760;2022-07-29T11:40:15;22.60;99.90
20208;DHT22;10263;48.716;8.760;2022-07-29T11:42:49;22.60;99.90
20208;DHT22;10263;48.716;8.760;2022-07-29T11:45:24;22.70;99.90
20208;DHT22;10263;48.716;8.760;2022-07-29T11:47:58;22.70;99.90
20208;DHT22;10263;48.716;8.760;2022-07-29T11:50:33;22.80;99.90
20208;DHT22;10263;48.716;8.760;2022-07-29T11:53:02;23.00;99.90
20208;DHT22;10263;48.716;8.760;2022-07-29T11:55:30;23.00;99.90
20208;DHT22;10263;48.716;8.760;2022-07-29T11:58:01;23.00;99.90
20208;DHT22;10263;48.716;8.760;2022-07-29T12:00:30;23.00;99.90
20208;DHT22;10263;48.716;8.760;2022-07-29T12:02:59;23.10;99.90
20208;DHT22;10263;48.716;8.760;2022-07-29T12:05:35;23.10;99.90
20208;DHT22;10263;48.716;8.760;2022-07-29T12:08:07;23.00;99.90
20208;DHT22;10263;48.716;8.760;2022-07-29T12:10:36;23.10;99.90
20208;DHT22;10263;48.716;8.760;2022-07-29T12:13:03;23.20;99.90
20208;DHT22;10263;48.716;8.760;2022-07-29T12:15:30;23.20;99.90
20208;DHT22;10263;48.716;8.760;2022-07-29T12:17:57;23.30;99.90
20208;DHT22;10263;48.716;8.760;2022-07-29T12:20:25;23.30;99.90
20208;DHT22;10263;48.716;8.760;2022-07-29T12:22:52;23.40;99.90
20208;DHT22;10263;48.716;8.760;2022-07-29T12:25:21;23.40;99.90
20208;DHT22;10263;48.716;8.760;2022-07-29T12:27:57;23.40;99.90
20208;DHT22;10263;48.716;8.760;2022-07-29T12:30:35;23.40;99.90
20208;DHT22;10263;48.716;8.760;2022-07-29T12:33:11;23.40;99.90
20208;DHT22;10263;48.716;8.760;2022-07-29T12:35:38;23.40;99.90
20208;DHT22;10263;48.716;8.760;2022-07-29T12:38:05;23.40;99.90
20208;DHT22;10263;48.716;8.760;2022-07-29T12:40:32;23.30;99.90
20208;DHT22;10263;48.716;8.760;2022-07-29T12:43:09;23.20;99.90
20208;DHT22;10263;48.716;8.760;2022-07-29T12:45:36;23.20;99.90
20208;DHT22;10263;48.716;8.760;2022-07-29T12:48:04;23.20;99.90
20208;DHT22;10263;48.716;8.760;2022-07-29T12:50:34;23.10;99.90
20208;DHT22;10263;48.716;8.760;2022-07-29T12:53:12;22.90;99.90
20208;DHT22;10263;48.716;8.760;2022-07-29T12:55:41;23.00;99.90
20208;DHT22;10263;48.716;8.760;2022-07-29T12:58:10;22.80;99.90
20208;DHT22;10263;48.716;8.760;2022-07-29T13:00:37;22.70;99.90
20208;DHT22;10263;48.716;8.760;2022-07-29T13:03:03;22.50;99.90
20208;DHT22;10263;48.716;8.760;2022-07-29T13:05:41;22.40;99.90
20208;DHT22;10263;48.716;8.760;2022-07-29T13:08:12;22.40;99.90
20208;DHT22;10263;48.716;8.760;2022-07-29T13:10:40;22.40;99.90
20208;DHT22;10263;48.716;8.760;2022-07-29T13:13:10;22.50;99.90
20208;DHT22;10263;48.716;8.760;2022-07-29T13:15:38;22.50;99.90
20208;DHT22;10263;48.716;8.760;2022-07-29T13:18:25;22.60;99.90
20208;DHT22;10263;48.716;8.760;2022-07-29T13:20:52;22.80;99.90
20208;DHT22;10263;48.716;8.760;2022-07-29T13:23:19;22.90;99.90
20208;DHT22;10263;48.716;8.760;2022-07-29T13:25:46;23.00;99.90
20208;DHT22;10263;48.716;8.760;2022-07-29T13:28:14;23.00;99.90
20208;DHT22;10263;48.716;8.760;2022-07-29T13:30:41;23.00;99.90
20208;DHT22;10263;48.716;8.760;2022-07-29T13:33:08;23.10;99.90
20208;DHT22;10263;48.716;8.760;2022-07-29T13:35:34;23.10;99.90
20208;DHT22;10263;48.716;8.760;2022-07-29T13:38:01;23.20;99.90
20208;DHT22;10263;48.716;8.760;2022-07-29T13:40:28;23.20;99.90
20208;DHT22;10263;48.716;8.760;2022-07-29T13:42:55;23.20;99.90
20208;DHT22;10263;48.716;8.760;2022-07-29T13:45:24;23.20;99.90
20208;DHT22;10263;48.716;8.760;2022-07-29T13:47:51;23.20;99.90
20208;DHT22;10263;48.716;8.760;2022-07-29T13:50:17;23.20;99.90
20208;DHT22;10263;48.716;8.760;2022-07-29T13:52:44;23.10;99.90
20208;DHT22;10263;48.716;8.760;2022-07-29T13:55:13;23.10;99.90
20208;DHT22;10263;48.716;8.760;2022-07-29T13:57:40;23.20;99.90
20208;DHT22;10263;48.716;8.760;2022-07-29T14:00:08;23.20;99.90
20208;DHT22;10263;48.716;8.760;2022-07-29T14:02:36;23.30;99.90
20208;DHT22;10263;48.716;8.760;2022-07-29T14:05:04;23.30;99.90
20208;DHT22;10263;48.716;8.760;2022-07-29T14:07:31;23.40;99.90
20208;DHT22;10263;48.716;8.760;2022-07-29T14:09:58;23.50;99.90
20208;DHT22;10263;48.716;8.760;2022-07-29T14:12:25;23.60;99.90
20208;DHT22;10263;48.716;8.760;2022-07-29T14:14:51;23.70;99.90
20208;DHT22;10263;48.716;8.760;2022-07-29T14:17:18;23.70;99.90
20208;DHT22;10263;48.716;8.760;2022-07-29T14:19:46;23.90;99.90
20208;DHT22;10263;48.716;8.760;2022-07-29T14:22:13;23.90;99.90
20208;DHT22;10263;48.716;8.760;2022-07-29T14:24:40;24.00;99.90
20208;DHT22;10263;48.716;8.760;2022-07-29T14:27:07;24.00;99.90
20208;DHT22;10263;48.716;8.760;2022-07-29T14:29:34;24.00;99.90
20208;DHT22;10263;48.716;8.760;2022-07-29T14:32:01;24.10;99.90
20208;DHT22;10263;48.716;8.760;2022-07-29T14:34:28;24.10;99.90
20208;DHT22;10263;48.716;8.760;2022-07-29T14:36:56;24.20;99.90
20208;DHT22;10263;48.716;8.760;2022-07-29T14:39:23;24.20;99.80
20208;DHT22;10263;48.716;8.760;2022-07-29T14:41:50;24.20;97.20
20208;DHT22;10263;48.716;8.760;2022-07-29T14:44:17;23.10;97.00
20208;DHT22;10263;48.716;8.760;2022-07-29T14:46:44;24.30;98.80
20208;DHT22;10263;48.716;8.760;2022-07-29T14:49:11;24.30;98.20
20208;DHT22;10263;48.716;8.760;2022-07-29T14:51:38;24.30;98.80
20208;DHT22;10263;48.716;8.760;2022-07-29T14:54:06;24.40;98.60
20208;DHT22;10263;48.716;8.760;2022-07-29T14:56:33;24.50;98.30
20208;DHT22;10263;48.716;8.760;2022-07-29T14:58:59;24.50;96.90
20208;DHT22;10263;48.716;8.760;2022-07-29T15:01:26;24.50;97.90
20208;DHT22;10263;48.716;8.760;2022-07-29T15:03:53;24.50;97.10
20208;DHT22;10263;48.716;8.760;2022-07-29T15:06:20;24.50;98.00
20208;DHT22;10263;48.716;8.760;2022-07-29T15:08:46;24.50;96.50
20208;DHT22;10263;48.716;8.760;2022-07-29T15:11:14;24.50;97.60
20208;DHT22;10263;48.716;8.760;2022-07-29T15:13:41;24.50;97.00
20208;DHT22;10263;48.716;8.760;2022-07-29T15:16:08;24.50;96.60
20208;DHT22;10263;48.716;8.760;2022-07-29T15:18:35;24.50;96.80
20208;DHT22;10263;48.716;8.760;2022-07-29T15:21:03;24.50;97.20
20208;DHT22;10263;48.716;8.760;2022-07-29T15:23:32;24.50;97.10
20208;DHT22;10263;48.716;8.760;2022-07-29T15:25:59;24.50;96.30
20208;DHT22;10263;48.716;8.760;2022-07-29T15:28:27;24.60;95.60
20208;DHT22;10263;48.716;8.760;2022-07-29T15:30:53;24.60;96.30
20208;DHT22;10263;48.716;8.760;2022-07-29T15:33:20;24.50;96.70
20208;DHT22;10263;48.716;8.760;2022-07-29T15:35:47;24.60;97.30
20208;DHT22;10263;48.716;8.760;2022-07-29T15:38:15;24.60;96.60
20208;DHT22;10263;48.716;8.760;2022-07-29T15:40:42;24.70;97.00
20208;DHT22;10263;48.716;8.760;2022-07-29T15:43:11;24.70;97.10
20208;DHT22;10263;48.716;8.760;2022-07-29T15:45:39;24.70;97.30
20208;DHT22;10263;48.716;8.760;2022-07-29T15:48:08;24.80;94.50